Time;durP1;ratioP1;P1;durP2;ratioP2;P2;SDS_P1;SDS_P2;PMS_P1;PMS_P2;Temp;Humidity;BMP_temperature;BMP_pressure;BME280_temperature;BME280_humidity;BME280_pressure;Samples;Min_cycle;Max_cycle;Signal;HPM_P1;HPM_P2
2021/10/21 00:00:21;;;;;;;;;;;;;;;19.12;67.38;101575.34;5043246;28;2008;-56
2021/10/21 00:02:48;;;;;;;;;;;;;;;19.11;66.67;101558.41;5041079;28;1744;-56
2021/10/21 00:05:14;;;;;;;;;;;;;;;19.12;66.25;101549.41;5037908;28;1526;-56
2021/10/21 00:07:41;;;;;;;;;;;;;;;19.11;66.18;101546.84;5035089;28;1437;-59
2021/10/21 00:10:09;;;;;;;;;;;;;;;19.11;66.50;101553.06;5040845;28;1575;-56
2021/10/21 00:12:35;;;;;;;;;;;;;;;19.12;67.26;101553.91;5039814;28;1459;-60
2021/10/21 00:15:04;;;;;;;;;;;;;;;19.14;65.82;101555.50;5039141;28;1452;-59
2021/10/21 00:17:31;;;;;;;;;;;;;;;19.14;66.87;101554.63;5039748;28;1421;-57
2021/10/21 00:19:58;;;;;;;;;;;;;;;19.06;66.48;101544.53;5038467;28;1981;-58
2021/10/21 00:22:24;;;;;;;;;;;;;;;19.04;66.67;101541.94;5044162;28;1242;-56
2021/10/21 00:24:51;;;;;;;;;;;;;;;19.07;65.89;101536.34;5041581;28;1507;-60
2021/10/21 00:27:18;;;;;;;;;;;;;;;19.08;66.84;101538.06;5041049;28;1432;-57
2021/10/21 00:29:44;;;;;;;;;;;;;;;19.05;66.09;101530.25;5036469;28;1459;-56
2021/10/21 00:32:12;;;;;;;;;;;;;;;19.10;65.61;101534.41;5042975;28;1512;-56
2021/10/21 00:34:38;;;;;;;;;;;;;;;19.12;66.75;101532.44;5036184;28;1526;-60
2021/10/21 00:37:05;;;;;;;;;;;;;;;19.11;65.51;101533.44;5038987;28;1326;-60
2021/10/21 00:39:32;;;;;;;;;;;;;;;19.06;65.93;101523.09;5036948;28;1902;-56
2021/10/21 00:41:58;;;;;;;;;;;;;;;19.05;65.41;101511.47;5038919;28;1495;-60
2021/10/21 00:44:25;;;;;;;;;;;;;;;19.08;66.58;101524.66;5038074;28;1520;-56
2021/10/21 00:46:52;;;;;;;;;;;;;;;19.07;65.57;101517.56;5039021;28;1524;-56
2021/10/21 00:49:20;;;;;;;;;;;;;;;19.07;65.32;101512.22;5042886;28;1392;-56
2021/10/21 00:51:46;;;;;;;;;;;;;;;19.02;66.31;101509.06;5035475;28;1469;-56
2021/10/21 00:54:13;;;;;;;;;;;;;;;19.04;66.45;101511.63;5036427;28;1587;-60
2021/10/21 00:56:40;;;;;;;;;;;;;;;19.04;65.09;101501.75;5038791;28;1464;-60
2021/10/21 00:59:08;;;;;;;;;;;;;;;19.02;65.26;101508.19;5040311;28;1974;-56
2021/10/21 01:01:36;;;;;;;;;;;;;;;19.04;64.88;101508.94;5035926;28;1499;-56
2021/10/21 01:04:03;;;;;;;;;;;;;;;19.02;66.05;101490.28;5037065;28;1436;-56
2021/10/21 01:06:31;;;;;;;;;;;;;;;19.04;65.57;101488.34;5036892;28;1183;-56
2021/10/21 01:08:57;;;;;;;;;;;;;;;19.00;65.66;101470.78;5035697;28;1624;-59
2021/10/21 01:11:24;;;;;;;;;;;;;;;18.96;66.07;101479.16;5041576;28;1499;-56
2021/10/21 01:13:51;;;;;;;;;;;;;;;19.02;65.86;101471.53;5039450;28;1568;-60
2021/10/21 01:16:17;;;;;;;;;;;;;;;19.00;64.89;101484.19;5042858;28;1424;-56
2021/10/21 01:18:44;;;;;;;;;;;;;;;18.99;65.20;101469.06;5040176;28;1973;-56
2021/10/21 01:21:13;;;;;;;;;;;;;;;18.99;65.21;101469.06;5042161;28;1483;-56
2021/10/21 01:23:40;;;;;;;;;;;;;;;18.99;64.67;101471.75;5041941;28;1588;-60
2021/10/21 01:26:07;;;;;;;;;;;;;;;18.97;65.89;101470.16;5044187;28;1408;-59
2021/10/21 01:28:34;;;;;;;;;;;;;;;18.96;65.21;101473.81;5039166;28;1525;-60
2021/10/21 01:31:00;;;;;;;;;;;;;;;18.96;65.42;101469.31;5041102;28;1444;-60
2021/10/21 01:33:27;;;;;;;;;;;;;;;18.98;65.46;101466.50;5041433;28;1214;-60
2021/10/21 01:35:54;;;;;;;;;;;;;;;18.95;65.49;101464.91;5043696;28;1818;-59
2021/10/21 01:38:22;;;;;;;;;;;;;;;18.93;65.10;101469.53;5039067;28;1960;-60
2021/10/21 01:40:48;;;;;;;;;;;;;;;19.00;65.23;101470.78;5042796;28;1906;-56
2021/10/21 01:43:15;;;;;;;;;;;;;;;19.04;64.28;101471.41;5039056;28;1506;-56
2021/10/21 01:45:42;;;;;;;;;;;;;;;18.96;64.58;101461.28;5038905;28;1322;-58
2021/10/21 01:48:08;;;;;;;;;;;;;;;18.94;65.13;101465.91;5042963;28;1420;-60
2021/10/21 01:50:35;;;;;;;;;;;;;;;18.93;65.66;101463.34;5046142;28;1736;-59
2021/10/21 01:53:01;;;;;;;;;;;;;;;18.91;64.98;101462.59;5044022;28;1487;-60
2021/10/21 01:55:29;;;;;;;;;;;;;;;18.95;65.04;101453.34;5037787;28;1310;-56
2021/10/21 01:57:56;;;;;;;;;;;;;;;18.92;64.62;101454.44;5041079;28;1709;-60
2021/10/21 02:03:00;;;;;;;;;;;;;;;18.92;65.34;101461.59;4442450;26;2709;-46
2021/10/21 02:05:29;;;;;;;;;;;;;;;18.91;64.32;101459.91;5053751;28;1526;-46
2021/10/21 02:07:56;;;;;;;;;;;;;;;18.91;65.40;101468.81;5054464;28;1694;-47
2021/10/21 02:10:23;;;;;;;;;;;;;;;18.90;64.88;101466.25;5049461;28;1634;-46
2021/10/21 02:12:57;;;;;;;;;;;;;;;18.91;64.32;101466.13;5052148;28;1448;-46
2021/10/21 02:15:27;;;;;;;;;;;;;;;18.89;64.63;101465.38;5054008;28;1789;-46
2021/10/21 02:20:43;;;;;;;;;;;;;;;18.86;64.65;101462.94;5053759;28;2240;-46
2021/10/21 02:23:10;;;;;;;;;;;;;;;18.94;67.87;101465.91;5035355;28;2325;-46
2021/10/21 02:25:37;;;;;;;;;;;;;;;18.90;67.42;101475.16;5035759;28;1639;-47
2021/10/21 02:28:16;;;;;;;;;;;;;;;19.19;67.41;101469.34;5054389;28;1166;-46
2021/10/21 02:30:44;;;;;;;;;;;;;;;19.21;67.80;101478.13;5055065;28;1043;-46
2021/10/21 02:33:10;;;;;;;;;;;;;;;19.11;67.18;101467.25;5053972;28;1932;-46
2021/10/21 02:35:37;;;;;;;;;;;;;;;19.23;66.91;101460.09;5053703;28;1955;-46
2021/10/21 02:38:05;;;;;;;;;;;;;;;19.45;65.52;101456.56;5053763;28;1550;-46
2021/10/21 02:40:35;;;;;;;;;;;;;;;19.27;67.18;101467.75;5053369;28;1969;-46
2021/10/21 02:43:03;;;;;;;;;;;;;;;19.21;66.66;101473.63;5054313;28;1735;-46
2021/10/21 02:45:39;;;;;;;;;;;;;;;19.56;65.32;101447.69;5053798;28;2071;-46
2021/10/21 02:48:06;;;;;;;;;;;;;;;19.70;65.10;101455.47;5053590;28;1651;-45
2021/10/21 02:50:32;;;;;;;;;;;;;;;19.37;66.22;101451.81;5053263;28;1571;-46
2021/10/21 02:53:03;;;;;;;;;;;;;;;19.32;65.70;101454.03;5052490;28;1708;-47
2021/10/21 02:55:37;;;;;;;;;;;;;;;19.62;65.64;101463.28;5034125;28;1079;-46
2021/10/21 02:58:07;;;;;;;;;;;;;;;19.46;65.97;101472.56;5050941;28;1351;-46
2021/10/21 03:00:47;;;;;;;;;;;;;;;19.31;66.10;101463.03;5053369;28;1905;-46
2021/10/21 03:03:18;;;;;;;;;;;;;;;19.43;66.28;101463.88;5042782;28;2268;-46
2021/10/21 03:05:48;;;;;;;;;;;;;;;19.61;64.65;101453.53;5051028;28;1734;-47
2021/10/21 03:08:18;;;;;;;;;;;;;;;19.44;65.98;101462.94;5053539;28;2052;-46
2021/10/21 03:13:27;;;;;;;;;;;;;;;19.32;66.02;101456.69;5047594;28;2438;-48
2021/10/21 03:15:58;;;;;;;;;;;;;;;19.30;66.87;101455.97;5053470;28;1170;-47
2021/10/21 03:18:28;;;;;;;;;;;;;;;19.27;66.67;101446.31;5053815;28;922;-46
2021/10/21 03:21:04;;;;;;;;;;;;;;;19.38;65.51;101440.13;5052490;28;1961;-46
2021/10/21 03:23:30;;;;;;;;;;;;;;;19.70;65.03;101447.44;5053278;28;2063;-46
2021/10/21 03:26:00;;;;;;;;;;;;;;;19.50;65.73;101440.09;5052562;28;1479;-45
2021/10/21 03:28:27;;;;;;;;;;;;;;;19.33;65.53;101450.34;5050004;28;1757;-48
2021/10/21 03:31:11;;;;;;;;;;;;;;;19.34;64.46;101438.66;5053230;28;1459;-46
2021/10/21 03:33:41;;;;;;;;;;;;;;;19.36;65.96;101423.31;5048784;28;1756;-46
2021/10/21 03:36:10;;;;;;;;;;;;;;;19.34;66.10;101444.03;5053059;28;1100;-46
2021/10/21 03:41:17;;;;;;;;;;;;;;;19.39;65.19;101428.41;5052199;28;1990;-46
2021/10/21 03:43:46;;;;;;;;;;;;;;;19.43;64.69;101429.03;5051868;28;1596;-46
2021/10/21 03:46:13;;;;;;;;;;;;;;;19.34;65.67;101422.56;5048245;28;1833;-46
2021/10/21 03:48:44;;;;;;;;;;;;;;;19.38;64.69;101421.34;5052350;28;1706;-46
2021/10/21 03:51:11;;;;;;;;;;;;;;;19.67;64.12;101410.94;5051631;28;1369;-46
2021/10/21 03:53:40;;;;;;;;;;;;;;;19.51;65.29;101406.94;5052094;28;1619;-47
2021/10/21 03:56:09;;;;;;;;;;;;;;;19.34;64.85;101409.16;5052095;28;1608;-46
2021/10/21 03:58:36;;;;;;;;;;;;;;;19.32;64.65;101420.97;5042244;28;1757;-49
2021/10/21 04:01:05;;;;;;;;;;;;;;;19.22;64.32;101410.13;5052617;28;1967;-49
2021/10/21 04:03:34;;;;;;;;;;;;;;;19.20;64.67;101414.75;5052781;28;2096;-49
2021/10/21 04:06:04;;;;;;;;;;;;;;;19.15;64.76;101407.06;5051287;28;2146;-49
2021/10/21 04:08:33;;;;;;;;;;;;;;;19.15;64.26;101406.22;5044185;28;1689;-48
2021/10/21 04:10:59;;;;;;;;;;;;;;;19.10;64.51;101405.72;5045640;28;1423;-48
2021/10/21 04:13:27;;;;;;;;;;;;;;;19.06;64.20;101405.97;5051172;28;1604;-49
2021/10/21 04:15:57;;;;;;;;;;;;;;;19.00;64.76;101406.47;5051725;28;1598;-48
2021/10/21 04:18:23;;;;;;;;;;;;;;;18.93;65.07;101397.19;5052470;28;1578;-48
2021/10/21 04:20:50;;;;;;;;;;;;;;;18.93;65.03;101402.53;5051829;28;2173;-48
2021/10/21 04:23:25;;;;;;;;;;;;;;;18.90;65.07;101394.75;5051849;28;1565;-49
2021/10/21 04:25:53;;;;;;;;;;;;;;;18.91;65.31;101393.78;5051847;28;1566;-48
2021/10/21 04:28:20;;;;;;;;;;;;;;;18.88;66.21;101399.38;5050267;28;1558;-49
2021/10/21 04:30:47;;;;;;;;;;;;;;;18.86;65.54;101382.53;5046422;28;1450;-48
2021/10/21 04:33:14;;;;;;;;;;;;;;;18.83;66.26;101393.50;5050249;28;1893;-49
2021/10/21 04:35:41;;;;;;;;;;;;;;;18.82;66.02;101391.78;5051135;28;1743;-48
2021/10/21 04:38:11;;;;;;;;;;;;;;;18.82;66.57;101391.78;5041848;28;1686;-49
2021/10/21 04:40:41;;;;;;;;;;;;;;;18.80;67.08;101388.38;5043433;28;2189;-50
2021/10/21 04:43:09;;;;;;;;;;;;;;;18.78;66.71;101391.16;5051393;28;1398;-49
2021/10/21 04:45:37;;;;;;;;;;;;;;;18.78;67.05;101387.63;5043495;28;1941;-49
2021/10/21 04:48:06;;;;;;;;;;;;;;;18.80;66.33;101385.69;5051500;28;1927;-48
2021/10/21 04:53:25;;;;;;;;;;;;;;;18.73;67.27;101381.78;5039828;28;2317;-49
2021/10/21 04:55:56;;;;;;;;;;;;;;;18.75;67.35;101372.63;5044674;28;1624;-48
2021/10/21 04:58:23;;;;;;;;;;;;;;;18.73;67.06;101371.91;5051194;28;1672;-48
2021/10/21 05:00:50;;;;;;;;;;;;;;;18.75;67.24;101369.97;5048325;28;2193;-49
2021/10/21 05:05:58;;;;;;;;;;;;;;;18.79;66.41;101366.09;5047727;28;1862;-49
2021/10/21 05:08:28;;;;;;;;;;;;;;;18.80;67.31;101372.31;5023218;28;11145;-49
2021/10/21 05:11:03;;;;;;;;;;;;;;;18.81;66.86;101374.03;5042669;28;1556;-48
2021/10/21 05:13:34;;;;;;;;;;;;;;;18.74;67.24;101354.00;5042268;28;1649;-49
2021/10/21 05:18:43;;;;;;;;;;;;;;;18.53;67.29;101368.09;5050603;28;2169;-49
2021/10/21 05:21:18;;;;;;;;;;;;;;;18.73;67.50;101371.06;5047965;28;1942;-49
2021/10/21 05:23:48;;;;;;;;;;;;;;;18.84;67.23;101355.00;5048685;28;1572;-49
2021/10/21 05:26:18;;;;;;;;;;;;;;;18.87;66.76;101362.81;5050678;28;1518;-49
2021/10/21 05:28:46;;;;;;;;;;;;;;;18.83;68.19;101361.34;5050084;28;1497;-50
2021/10/21 05:31:12;;;;;;;;;;;;;;;18.86;67.86;101369.13;5043021;28;1556;-48
2021/10/21 05:33:42;;;;;;;;;;;;;;;18.97;67.85;101353.09;5051309;28;1744;-50
2021/10/21 05:36:09;;;;;;;;;;;;;;;19.05;67.82;101361.38;5044977;28;1471;-49
2021/10/21 05:38:36;;;;;;;;;;;;;;;19.50;65.97;101349.78;5050668;28;1610;-49
2021/10/21 05:41:07;;;;;;;;;;;;;;;19.36;67.22;101348.22;5049794;28;1910;-49
2021/10/21 05:43:38;;;;;;;;;;;;;;;19.46;67.12;101351.00;5048089;28;1764;-49
2021/10/21 05:46:08;;;;;;;;;;;;;;;19.80;67.27;101357.16;5048396;28;1694;-50
2021/10/21 05:48:36;;;;;;;;;;;;;;;19.95;66.92;101354.19;5051382;28;1536;-50
2021/10/21 05:51:07;;;;;;;;;;;;;;;19.84;67.12;101350.56;5049217;28;1552;-49
2021/10/21 05:53:33;;;;;;;;;;;;;;;19.76;66.75;101355.72;5045114;28;1601;-50
2021/10/21 05:56:04;;;;;;;;;;;;;;;19.85;65.93;101341.53;5048843;28;1694;-50
2021/10/21 05:58:30;;;;;;;;;;;;;;;20.22;66.42;101351.03;5050527;28;1605;-49
2021/10/21 06:01:01;;;;;;;;;;;;;;;20.39;66.59;101341.53;5050049;28;1906;-49
2021/10/21 06:03:32;;;;;;;;;;;;;;;20.38;65.96;101361.34;5054316;28;1715;-49
2021/10/21 06:06:01;;;;;;;;;;;;;;;20.25;66.47;101351.63;5052978;28;1564;-48
2021/10/21 06:11:24;;;;;;;;;;;;;;;20.02;66.69;101345.50;5051036;28;1666;-49
2021/10/21 06:13:53;;;;;;;;;;;;;;;20.32;66.16;101356.50;5054034;28;1649;-49
2021/10/21 06:16:36;;;;;;;;;;;;;;;20.31;67.20;101333.28;5054084;28;1611;-49
2021/10/21 06:19:15;;;;;;;;;;;;;;;20.33;66.97;101342.91;5052224;28;1519;-48
2021/10/21 06:21:46;;;;;;;;;;;;;;;20.24;66.67;101339.19;5051332;28;1906;-49
2021/10/21 06:24:14;;;;;;;;;;;;;;;20.19;66.77;101335.16;5054114;28;1855;-49
2021/10/21 06:26:41;;;;;;;;;;;;;;;20.34;66.71;101336.56;5046833;28;1928;-49
2021/10/21 06:29:08;;;;;;;;;;;;;;;20.51;66.24;101329.72;5047304;28;1787;-48
2021/10/21 06:31:35;;;;;;;;;;;;;;;20.50;67.34;101332.56;5049188;28;1594;-49
2021/10/21 06:34:02;;;;;;;;;;;;;;;20.44;67.47;101329.41;5052989;28;1719;-49
2021/10/21 06:36:32;;;;;;;;;;;;;;;20.37;66.49;101324.69;5048351;28;1524;-49
2021/10/21 06:39:02;;;;;;;;;;;;;;;20.25;66.80;101310.47;5049063;28;1699;-48
2021/10/21 06:41:37;;;;;;;;;;;;;;;20.19;66.94;101311.00;5048069;28;1901;-48
2021/10/21 06:44:05;;;;;;;;;;;;;;;19.98;67.56;101321.75;5053726;28;1672;-48
2021/10/21 06:46:35;;;;;;;;;;;;;;;20.29;67.29;101313.75;5051794;28;1636;-48
2021/10/21 06:49:04;;;;;;;;;;;;;;;20.25;67.64;101302.41;5053128;28;1824;-47
2021/10/21 06:51:36;;;;;;;;;;;;;;;20.16;67.90;101290.63;5052828;28;1365;-48
2021/10/21 06:54:05;;;;;;;;;;;;;;;20.34;67.32;101303.50;5051400;28;1612;-48
2021/10/21 06:56:32;;;;;;;;;;;;;;;20.11;68.04;101300.91;5047609;28;1606;-48
2021/10/21 06:59:02;;;;;;;;;;;;;;;20.13;67.50;101298.09;5046379;28;1783;-48
2021/10/21 07:01:28;;;;;;;;;;;;;;;20.14;67.37;101289.91;5052866;28;2013;-47
2021/10/21 07:03:55;;;;;;;;;;;;;;;20.20;66.87;101294.75;5052486;28;1611;-48
2021/10/21 07:06:25;;;;;;;;;;;;;;;20.17;67.82;101273.53;5043661;28;1831;-48
2021/10/21 07:08:58;;;;;;;;;;;;;;;20.10;67.42;101280.44;5044490;28;1604;-49
2021/10/21 07:11:25;;;;;;;;;;;;;;;20.32;67.47;101283.97;5040214;28;1995;-49
2021/10/21 07:13:52;;;;;;;;;;;;;;;20.29;66.75;101281.53;5053504;28;1652;-48
2021/10/21 07:16:19;;;;;;;;;;;;;;;20.26;68.17;101288.03;5052896;28;1523;-48
2021/10/21 07:18:49;;;;;;;;;;;;;;;20.26;67.64;101271.91;5044987;28;1683;-48
2021/10/21 07:21:18;;;;;;;;;;;;;;;20.14;67.94;101284.56;5053577;28;1914;-48
2021/10/21 07:23:59;;;;;;;;;;;;;;;20.23;67.98;101283.78;5040910;28;1532;-48
2021/10/21 07:26:31;;;;;;;;;;;;;;;20.26;68.31;101263.84;5052853;28;1567;-47
2021/10/21 07:28:59;;;;;;;;;;;;;;;20.21;68.22;101258.88;5044874;28;1760;-49
2021/10/21 07:31:26;;;;;;;;;;;;;;;20.24;68.41;101276.56;5051823;28;1751;-48
2021/10/21 07:33:55;;;;;;;;;;;;;;;20.40;67.32;101246.56;5051841;28;1550;-47
2021/10/21 07:36:25;;;;;;;;;;;;;;;20.32;67.17;101265.16;5048228;28;1677;-48
2021/10/21 07:38:53;;;;;;;;;;;;;;;20.16;68.58;101266.47;5053089;28;2316;-48
2021/10/21 07:41:21;;;;;;;;;;;;;;;20.09;68.80;101265.28;5045075;28;1906;-48
2021/10/21 07:44:05;;;;;;;;;;;;;;;20.07;68.02;101259.19;5051423;28;1632;-48
2021/10/21 07:46:33;;;;;;;;;;;;;;;20.00;68.29;101249.97;5053024;28;1601;-48
2021/10/21 07:49:03;;;;;;;;;;;;;;;19.99;68.72;101242.88;5052913;28;1545;-48
2021/10/21 07:51:31;;;;;;;;;;;;;;;19.97;68.50;101244.84;5053304;28;1571;-48
2021/10/21 07:53:59;;;;;;;;;;;;;;;19.97;67.97;101236.81;5053112;28;1749;-48
2021/10/21 07:56:26;;;;;;;;;;;;;;;19.93;67.98;101232.69;5051218;28;1691;-48
2021/10/21 07:58:59;;;;;;;;;;;;;;;19.93;68.19;101227.31;5052463;28;1556;-48
2021/10/21 08:01:25;;;;;;;;;;;;;;;19.95;68.10;101244.13;5051940;28;1910;-48
2021/10/21 08:03:53;;;;;;;;;;;;;;;19.90;68.67;101225.75;5052584;28;1526;-48
2021/10/21 08:06:22;;;;;;;;;;;;;;;19.88;69.00;101208.91;5051363;28;1460;-48
2021/10/21 08:08:52;;;;;;;;;;;;;;;19.88;68.06;101216.13;5053041;28;1723;-48
2021/10/21 08:11:19;;;;;;;;;;;;;;;19.85;68.83;101204.63;5053370;28;1628;-48
2021/10/21 08:13:45;;;;;;;;;;;;;;;19.87;69.17;101212.56;5053371;28;1701;-48
2021/10/21 08:16:29;;;;;;;;;;;;;;;19.87;69.36;101209.88;5044487;28;1557;-48
2021/10/21 08:19:28;;;;;;;;;;;;;;;19.83;69.23;101205.75;5044974;28;1409;-48
2021/10/21 08:22:02;;;;;;;;;;;;;;;19.85;69.04;101199.28;5052184;28;1998;-48
2021/10/21 08:24:29;;;;;;;;;;;;;;;19.86;68.44;101189.41;5052677;28;2005;-49
2021/10/21 08:26:57;;;;;;;;;;;;;;;19.85;69.14;101182.31;5052840;28;1696;-48
2021/10/21 08:29:31;;;;;;;;;;;;;;;19.83;68.22;101193.19;5052571;28;1700;-48
2021/10/21 08:32:03;;;;;;;;;;;;;;;19.84;69.39;101184.16;5050677;28;1777;-48
2021/10/21 08:34:38;;;;;;;;;;;;;;;19.84;68.07;101192.22;5052528;28;1994;-48
2021/10/21 08:37:06;;;;;;;;;;;;;;;19.80;69.28;101174.69;5045314;28;1559;-48
2021/10/21 08:39:35;;;;;;;;;;;;;;;19.82;68.31;101178.09;5052139;28;1819;-48
2021/10/21 08:42:04;;;;;;;;;;;;;;;19.81;69.14;101173.69;5052182;28;2110;-48
2021/10/21 08:44:35;;;;;;;;;;;;;;;19.79;68.10;101183.69;5052109;28;1950;-48
2021/10/21 08:47:06;;;;;;;;;;;;;;;19.81;69.21;101176.38;5045115;28;1749;-48
2021/10/21 08:49:42;;;;;;;;;;;;;;;19.84;68.75;101164.53;5052830;28;1755;-48
2021/10/21 08:52:11;;;;;;;;;;;;;;;19.83;69.17;101168.19;5051596;28;1678;-48
2021/10/21 08:54:39;;;;;;;;;;;;;;;19.78;68.40;101163.22;5050660;28;1569;-48
2021/10/21 08:57:10;;;;;;;;;;;;;;;19.79;68.89;101159.53;5050150;28;1720;-49
2021/10/21 08:59:37;;;;;;;;;;;;;;;19.80;69.03;101163.09;5045693;28;1564;-48
2021/10/21 09:02:11;;;;;;;;;;;;;;;19.76;68.94;101146.41;5048488;28;2307;-48
2021/10/21 09:04:57;;;;;;;;;;;;;;;19.78;68.20;101148.97;5052745;28;1633;-48
2021/10/21 09:10:21;;;;;;;;;;;;;;;19.77;69.45;101141.88;5028985;28;2333;-48
2021/10/21 09:12:50;;;;;;;;;;;;;;;19.80;69.44;101150.53;5024364;28;1678;-48
2021/10/21 09:15:23;;;;;;;;;;;;;;;19.75;69.55;101142.00;5051050;28;1613;-49
2021/10/21 09:17:54;;;;;;;;;;;;;;;19.74;69.40;101143.00;5052519;28;1603;-48
2021/10/21 09:20:38;;;;;;;;;;;;;;;19.70;69.56;101125.44;5052187;28;1631;-49
2021/10/21 09:23:07;;;;;;;;;;;;;;;19.72;69.57;101118.13;5046400;28;1973;-49
2021/10/21 09:25:34;;;;;;;;;;;;;;;19.71;69.27;101134.31;5052874;28;1480;-48
2021/10/21 09:28:17;;;;;;;;;;;;;;;19.71;69.14;101116.41;5051735;28;1805;-48
2021/10/21 09:30:51;;;;;;;;;;;;;;;19.71;69.37;101128.97;5053067;28;1307;-48
2021/10/21 09:33:18;;;;;;;;;;;;;;;19.75;68.65;101143.84;5054872;28;1861;-48
2021/10/21 09:35:52;;;;;;;;;;;;;;;19.70;69.44;101109.34;5055873;28;1823;-48
2021/10/21 09:38:20;;;;;;;;;;;;;;;19.70;69.09;101114.69;5055687;28;1899;-47
2021/10/21 09:40:47;;;;;;;;;;;;;;;19.74;69.05;101101.91;5055837;28;1548;-48
2021/10/21 09:43:23;;;;;;;;;;;;;;;19.74;68.99;101101.91;5056315;28;1902;-48
2021/10/21 09:45:51;;;;;;;;;;;;;;;19.73;68.13;101102.88;5055295;28;1720;-48
2021/10/21 09:48:23;;;;;;;;;;;;;;;19.73;69.05;101087.63;5053726;28;1567;-48
2021/10/21 09:50:52;;;;;;;;;;;;;;;19.73;68.34;101093.00;5055862;28;1888;-48
2021/10/21 09:53:19;;;;;;;;;;;;;;;19.75;68.54;101099.06;5039502;28;1567;-48
2021/10/21 09:55:48;;;;;;;;;;;;;;;19.78;69.34;101080.03;5055897;28;1479;-48
2021/10/21 09:58:19;;;;;;;;;;;;;;;19.76;68.49;101081.16;5056144;28;1407;-48
2021/10/21 10:00:49;;;;;;;;;;;;;;;19.78;68.71;101079.19;5046752;28;1737;-48
2021/10/21 10:03:20;;;;;;;;;;;;;;;19.75;67.74;101082.97;5054459;28;1977;-49
2021/10/21 10:06:01;;;;;;;;;;;;;;;19.75;67.82;101071.41;5055584;28;1885;-48
2021/10/21 10:08:35;;;;;;;;;;;;;;;19.79;68.89;101071.00;5054533;28;2128;-48
2021/10/21 10:11:08;;;;;;;;;;;;;;;19.78;68.97;101072.00;5050860;28;1819;-48
2021/10/21 10:13:36;;;;;;;;;;;;;;;19.75;68.79;101057.97;5055037;28;1564;-48
2021/10/21 10:16:10;;;;;;;;;;;;;;;19.75;68.25;101048.09;5055241;28;1535;-48
2021/10/21 10:18:44;;;;;;;;;;;;;;;19.75;68.80;101057.97;5053497;28;1439;-48
2021/10/21 10:21:18;;;;;;;;;;;;;;;19.74;68.51;101046.41;5052172;28;2057;-48
2021/10/21 10:23:51;;;;;;;;;;;;;;;19.75;68.77;101064.19;5055010;28;1902;-48
2021/10/21 10:26:36;;;;;;;;;;;;;;;19.77;68.35;101056.84;5049805;28;1515;-48
2021/10/21 10:29:04;;;;;;;;;;;;;;;19.73;69.32;101044.69;5051195;28;1805;-48
2021/10/21 10:31:39;;;;;;;;;;;;;;;19.70;68.87;101039.56;5054780;28;1561;-49
2021/10/21 10:34:06;;;;;;;;;;;;;;;19.72;69.26;101020.69;5054460;28;1549;-48
2021/10/21 10:36:33;;;;;;;;;;;;;;;19.72;69.13;101026.06;5050509;28;1449;-49
2021/10/21 10:39:06;;;;;;;;;;;;;;;19.74;68.26;101016.06;5055033;28;1734;-48
2021/10/21 10:41:56;;;;;;;;;;;;;;;19.65;68.83;101020.34;5043459;28;1923;-48
2021/10/21 10:44:43;;;;;;;;;;;;;;;19.68;68.17;101017.41;5048982;28;2516;-48
2021/10/21 10:47:11;;;;;;;;;;;;;;;19.69;69.43;101000.31;5045766;28;1675;-48
2021/10/21 10:49:42;;;;;;;;;;;;;;;19.66;69.58;100995.22;5054351;28;2082;-49
2021/10/21 10:52:10;;;;;;;;;;;;;;;19.67;69.05;100991.53;5047950;28;1601;-48
2021/10/21 10:55:00;;;;;;;;;;;;;;;19.67;68.47;101007.63;5053311;28;1731;-48
2021/10/21 10:57:48;;;;;;;;;;;;;;;19.68;69.44;100983.34;5049005;28;2858;-48
2021/10/21 11:00:31;;;;;;;;;;;;;;;19.68;68.65;100983.34;5050272;28;1679;-48
2021/10/21 11:02:59;;;;;;;;;;;;;;;19.66;68.99;100973.75;5051751;28;1906;-48
2021/10/21 11:05:53;;;;;;;;;;;;;;;19.66;68.96;100971.91;5051180;28;1697;-48
2021/10/21 11:08:21;;;;;;;;;;;;;;;19.70;68.94;100980.56;5054125;28;1569;-48
2021/10/21 11:10:53;;;;;;;;;;;;;;;19.66;68.51;100971.06;5054177;28;1573;-48
2021/10/21 11:13:31;;;;;;;;;;;;;;;19.65;69.75;100967.50;5048100;28;1544;-48
2021/10/21 11:15:58;;;;;;;;;;;;;;;19.65;69.16;100959.47;5045472;28;2062;-51
2021/10/21 11:18:48;;;;;;;;;;;;;;;19.67;69.32;100959.34;5054942;28;1567;-48
2021/10/21 11:21:30;;;;;;;;;;;;;;;19.66;68.68;100960.34;5050642;28;1846;-48
2021/10/21 11:24:01;;;;;;;;;;;;;;;19.63;69.02;100953.38;5050409;28;1997;-49
2021/10/21 11:26:33;;;;;;;;;;;;;;;19.63;68.26;100960.59;5046255;28;1688;-48
2021/10/21 11:29:03;;;;;;;;;;;;;;;19.65;68.45;100927.28;5051501;28;1562;-49
2021/10/21 11:31:30;;;;;;;;;;;;;;;19.68;69.44;100948.47;5053860;28;1803;-48
2021/10/21 11:36:49;;;;;;;;;;;;;;;19.62;68.54;100946.34;5046093;28;2408;-48
2021/10/21 11:39:15;;;;;;;;;;;;;;;19.62;68.67;100938.28;5052296;28;1804;-48
2021/10/21 11:41:42;;;;;;;;;;;;;;;19.62;69.76;100918.69;5053194;28;1637;-48
2021/10/21 11:44:09;;;;;;;;;;;;;;;19.65;69.51;100915.69;5052680;28;1902;-48
2021/10/21 11:46:40;;;;;;;;;;;;;;;19.65;69.53;100919.22;5051650;28;1674;-47
2021/10/21 11:49:08;;;;;;;;;;;;;;;19.64;68.64;100903.28;5053714;28;1498;-48
2021/10/21 11:51:37;;;;;;;;;;;;;;;19.66;69.28;100910.22;5054027;28;1747;-48
2021/10/21 11:56:55;;;;;;;;;;;;;;;19.64;69.81;100900.59;5048451;28;2462;-48
2021/10/21 11:59:34;;;;;;;;;;;;;;;19.62;69.39;100890.00;5044645;28;1826;-48
2021/10/21 12:02:08;;;;;;;;;;;;;;;19.63;69.59;100891.69;5052679;28;1963;-48
2021/10/21 12:04:44;;;;;;;;;;;;;;;19.62;68.35;100873.06;5049762;28;1786;-48
2021/10/21 12:07:12;;;;;;;;;;;;;;;19.62;68.97;100886.47;5050060;28;1632;-48
2021/10/21 12:09:43;;;;;;;;;;;;;;;19.61;69.40;100890.13;5049841;28;1645;-48
2021/10/21 12:12:26;;;;;;;;;;;;;;;19.60;69.69;100883.09;5050462;28;1513;-48
2021/10/21 12:14:53;;;;;;;;;;;;;;;19.63;69.09;100874.75;5050971;28;1522;-48
2021/10/21 12:17:21;;;;;;;;;;;;;;;19.62;69.35;100873.06;5052179;28;1571;-48
2021/10/21 12:19:55;;;;;;;;;;;;;;;19.60;68.65;100867.00;5044041;28;1632;-48
2021/10/21 12:22:29;;;;;;;;;;;;;;;19.58;69.92;100868.97;5053751;28;1902;-48
2021/10/21 12:24:56;;;;;;;;;;;;;;;19.60;69.20;100867.00;5052965;28;1829;-48
2021/10/21 12:27:28;;;;;;;;;;;;;;;19.57;69.88;100862.72;5053223;28;1541;-48
2021/10/21 12:30:01;;;;;;;;;;;;;;;19.57;69.10;100853.84;5046148;28;1686;-48
2021/10/21 12:32:27;;;;;;;;;;;;;;;19.60;68.79;100843.69;5052730;28;1569;-48
2021/10/21 12:35:11;;;;;;;;;;;;;;;19.57;69.25;100867.25;5043449;28;1583;-48
2021/10/21 12:37:44;;;;;;;;;;;;;;;19.59;69.85;100865.28;5053118;28;1656;-48
2021/10/21 12:40:19;;;;;;;;;;;;;;;19.55;70.09;100858.50;5053043;28;1937;-48
2021/10/21 12:42:47;;;;;;;;;;;;;;;19.57;69.43;100851.16;5051997;28;1910;-49
2021/10/21 12:45:20;;;;;;;;;;;;;;;19.54;69.88;100857.66;5052402;28;2087;-48
2021/10/21 12:47:47;;;;;;;;;;;;;;;19.54;69.68;100846.09;5052297;28;1530;-48
2021/10/21 12:50:15;;;;;;;;;;;;;;;19.55;69.67;100847.78;5052821;28;1527;-48
2021/10/21 12:52:52;;;;;;;;;;;;;;;19.54;69.30;100851.44;5052969;28;1392;-48
2021/10/21 12:55:20;;;;;;;;;;;;;;;19.53;69.18;100834.47;5052321;28;1702;-48
2021/10/21 12:57:52;;;;;;;;;;;;;;;19.54;69.80;100840.72;5051969;28;1563;-48
2021/10/21 13:00:26;;;;;;;;;;;;;;;19.50;68.89;100832.09;5046188;28;1734;-48
2021/10/21 13:02:59;;;;;;;;;;;;;;;19.53;70.05;100844.38;5048687;28;1906;-48
2021/10/21 13:05:28;;;;;;;;;;;;;;;19.52;69.25;100827.44;5051582;28;1804;-48
2021/10/21 13:07:57;;;;;;;;;;;;;;;19.52;69.44;100829.25;5052613;28;1623;-48
2021/10/21 13:10:25;;;;;;;;;;;;;;;19.50;69.53;100816.00;5051998;28;1428;-48
2021/10/21 13:12:52;;;;;;;;;;;;;;;19.47;70.30;100817.09;5052206;28;1871;-48
2021/10/21 13:15:22;;;;;;;;;;;;;;;19.46;69.39;100811.91;5052179;28;1498;-48
2021/10/21 13:17:52;;;;;;;;;;;;;;;19.48;69.50;100808.09;5050521;28;1570;-48
2021/10/21 13:20:21;;;;;;;;;;;;;;;19.42;69.27;100805.97;5052099;28;1607;-48
2021/10/21 13:22:47;;;;;;;;;;;;;;;19.40;69.12;100802.56;5043591;28;1963;-48
2021/10/21 13:25:20;;;;;;;;;;;;;;;19.45;69.38;100816.41;5051955;28;1576;-47
2021/10/21 13:27:55;;;;;;;;;;;;;;;19.44;70.30;100800.47;5052478;28;1940;-48
2021/10/21 13:30:28;;;;;;;;;;;;;;;19.42;70.39;100807.81;5044311;28;1710;-48
2021/10/21 13:32:57;;;;;;;;;;;;;;;19.41;69.55;100792.69;5048771;28;1779;-48